Time;durP1;ratioP1;P1;durP2;ratioP2;P2;SDS_P1;SDS_P2;PMS_P1;PMS_P2;Temp;Humidity;BMP_temperature;BMP_pressure;BME280_temperature;BME280_humidity;BME280_pressure;Samples;Min_cycle;Max_cycle;Signal;HPM_P1;HPM_P2
2022/05/23 00:01:50;;;;;;;5.97;2.40;;;20.90;43.20;;;;;;5087652;28;20147;-64
2022/05/23 00:04:16;;;;;;;4.72;2.28;;;21.00;43.20;;;;;;5091961;28;20103;-64
2022/05/23 00:06:42;;;;;;;6.65;2.10;;;20.90;43.10;;;;;;5079119;28;20054;-65
2022/05/23 00:09:09;;;;;;;4.18;2.40;;;20.80;43.10;;;;;;5082666;28;20028;-66
2022/05/23 00:11:34;;;;;;;5.57;2.35;;;20.80;43.40;;;;;;5088341;28;20035;-65
2022/05/23 00:14:00;;;;;;;6.90;2.80;;;20.80;43.50;;;;;;5092328;28;20046;-66
2022/05/23 00:16:31;;;;;;;7.65;2.35;;;20.70;43.80;;;;;;5078191;28;20491;-66
2022/05/23 00:18:57;;;;;;;7.88;2.97;;;20.60;44.10;;;;;;5080689;28;20028;-66
2022/05/23 00:21:22;;;;;;;6.82;2.70;;;20.60;44.30;;;;;;5084180;28;20024;-66
2022/05/23 00:23:48;;;;;;;8.15;2.83;;;20.60;44.50;;;;;;5083141;28;20020;-66
2022/05/23 00:26:17;;;;;;;6.30;2.50;;;20.50;44.70;;;;;;5090980;28;20566;-65
2022/05/23 00:28:43;;;;;;;5.60;2.40;;;20.60;44.80;;;;;;5091163;28;20576;-66
2022/05/23 00:31:10;;;;;;;8.05;2.42;;;20.50;44.90;;;;;;5086758;28;20158;-63
2022/05/23 00:36:23;;;;;;;7.53;2.05;;;20.50;45.30;;;;;;5083520;28;20169;-66
2022/05/23 00:38:49;;;;;;;6.18;2.45;;;20.50;45.30;;;;;;5078497;28;20020;-65
2022/05/23 00:44:25;;;;;;;6.40;2.15;;;20.40;45.40;;;;;;5089235;28;20059;-68
2022/05/23 00:46:58;;;;;;;5.75;2.47;;;20.30;45.40;;;;;;5072636;28;20028;-65
2022/05/23 00:49:36;;;;;;;8.32;2.70;;;20.30;45.60;;;;;;5089005;28;20035;-65
2022/05/23 00:52:06;;;;;;;6.28;2.78;;;20.30;45.70;;;;;;5077257;28;20038;-67
2022/05/23 00:54:46;;;;;;;7.82;2.45;;;20.20;45.70;;;;;;5089160;28;20062;-65
2022/05/23 00:57:18;;;;;;;6.43;2.20;;;20.20;45.80;;;;;;5081687;28;20020;-63
2022/05/23 00:59:44;;;;;;;7.18;2.20;;;20.20;45.70;;;;;;5090440;28;20031;-65
2022/05/23 01:02:13;;;;;;;6.60;2.63;;;20.20;45.70;;;;;;5079481;28;20039;-62
2022/05/23 01:04:39;;;;;;;10.73;2.63;;;20.20;46.00;;;;;;5071055;28;20031;-63
2022/05/23 01:07:05;;;;;;;7.45;2.05;;;20.10;46.00;;;;;;5069361;28;20133;-67
2022/05/23 01:09:32;;;;;;;6.05;2.50;;;20.20;46.00;;;;;;5071664;28;20016;-65
2022/05/23 01:11:58;;;;;;;6.00;2.15;;;20.20;46.10;;;;;;5091330;28;20032;-65
2022/05/23 01:14:26;;;;;;;4.43;2.45;;;20.20;46.10;;;;;;5087008;28;20028;-66
2022/05/23 01:16:52;;;;;;;4.95;2.22;;;20.30;46.10;;;;;;5086409;28;20016;-64
2022/05/23 01:19:17;;;;;;;4.90;2.90;;;20.30;46.00;;;;;;5083519;28;20480;-65
2022/05/23 01:22:03;;;;;;;8.63;3.15;;;20.30;46.60;;;;;;5089834;28;20016;-65
2022/05/23 01:24:59;;;;;;;5.70;2.90;;;20.20;48.10;;;;;;5084510;28;20028;-65
2022/05/23 01:27:27;;;;;;;7.35;3.10;;;20.10;48.60;;;;;;5078171;28;20028;-64
2022/05/23 01:29:54;;;;;;;7.10;3.10;;;19.90;48.80;;;;;;5087231;28;20543;-65
2022/05/23 01:32:19;;;;;;;7.35;3.10;;;19.90;48.90;;;;;;5089129;28;20036;-65
2022/05/23 01:34:45;;;;;;;6.63;3.05;;;19.90;49.10;;;;;;5070796;28;20550;-65
2022/05/23 01:37:11;;;;;;;6.65;3.13;;;19.90;49.50;;;;;;5080576;28;20370;-62
2022/05/23 01:39:37;;;;;;;12.32;3.45;;;19.80;49.40;;;;;;5085175;28;20103;-66
2022/05/23 01:42:03;;;;;;;5.88;3.30;;;19.90;49.50;;;;;;5088198;28;20381;-65
2022/05/23 01:44:28;;;;;;;5.85;3.15;;;19.90;49.50;;;;;;5088745;28;20501;-64
2022/05/23 01:46:54;;;;;;;8.25;3.28;;;19.90;49.50;;;;;;5079748;28;20115;-66
2022/05/23 01:49:20;;;;;;;8.60;3.58;;;19.90;49.60;;;;;;5077012;28;20035;-67
2022/05/23 01:51:46;;;;;;;11.68;3.80;;;19.90;49.60;;;;;;5090755;28;20019;-65
2022/05/23 01:54:12;;;;;;;8.68;3.72;;;19.80;49.70;;;;;;5076719;28;20065;-62
2022/05/23 01:56:38;;;;;;;11.75;4.18;;;19.80;49.80;;;;;;5089000;28;20024;-66
2022/05/23 02:01:48;;;;;;;11.55;3.75;;;19.70;50.00;;;;;;5084620;28;20153;-66
2022/05/23 02:04:14;;;;;;;7.45;3.40;;;19.60;50.20;;;;;;5078037;28;20581;-64
2022/05/23 02:06:40;;;;;;;7.88;3.75;;;19.50;50.60;;;;;;5076576;28;20544;-65
2022/05/23 02:09:05;;;;;;;6.53;3.60;;;19.40;50.70;;;;;;5088980;28;20113;-63
2022/05/23 02:11:31;;;;;;;6.15;3.13;;;19.40;50.70;;;;;;5073193;28;20620;-66
2022/05/23 02:13:57;;;;;;;7.90;3.78;;;19.50;50.60;;;;;;5060708;28;20024;-65
2022/05/23 02:16:23;;;;;;;9.52;3.58;;;19.50;50.60;;;;;;5088703;28;20329;-66
2022/05/23 02:18:49;;;;;;;8.82;3.90;;;19.40;50.80;;;;;;5059759;28;20030;-66
2022/05/23 02:21:16;;;;;;;6.57;3.63;;;19.40;51.10;;;;;;5085587;28;20028;-65
2022/05/23 02:23:42;;;;;;;9.88;3.70;;;19.30;51.20;;;;;;5090208;28;20066;-65
2022/05/23 02:26:09;;;;;;;7.93;3.42;;;19.30;51.20;;;;;;5077071;28;20362;-64
2022/05/23 02:28:35;;;;;;;9.82;3.55;;;19.40;51.20;;;;;;5078574;28;20119;-65
2022/05/23 02:31:00;;;;;;;6.63;3.22;;;19.20;51.40;;;;;;5082671;28;20509;-65
2022/05/23 02:33:27;;;;;;;5.63;3.10;;;19.20;51.50;;;;;;5089279;28;20417;-65
2022/05/23 02:35:52;;;;;;;7.82;3.40;;;19.20;51.60;;;;;;5088264;28;20043;-65
2022/05/23 02:38:18;;;;;;;6.47;3.30;;;19.20;51.60;;;;;;5076590;28;20021;-64
2022/05/23 02:40:43;;;;;;;10.77;3.50;;;19.20;51.70;;;;;;5057969;28;20107;-65
2022/05/23 02:43:09;;;;;;;6.88;3.20;;;19.20;51.70;;;;;;5077156;28;20025;-65
2022/05/23 02:45:36;;;;;;;9.50;3.50;;;19.20;51.70;;;;;;5085907;28;20404;-65
2022/05/23 02:48:02;;;;;;;8.02;3.92;;;19.20;51.80;;;;;;5079928;28;20020;-65
2022/05/23 02:50:28;;;;;;;7.68;3.63;;;19.20;51.70;;;;;;5082044;28;20024;-65
2022/05/23 02:52:55;;;;;;;10.18;3.80;;;19.20;51.60;;;;;;5070815;28;20026;-67
2022/05/23 02:55:21;;;;;;;9.18;3.28;;;19.20;51.30;;;;;;5063055;28;20024;-66
2022/05/23 02:57:46;;;;;;;6.45;3.20;;;19.10;51.30;;;;;;5083130;28;20055;-65
2022/05/23 03:00:12;;;;;;;7.15;3.03;;;19.10;51.20;;;;;;5077120;28;20063;-62
2022/05/23 03:08:07;;;;;;;;;;;19.20;51.00;;;;;;5077562;28;20039;-65
2022/05/23 03:10:33;;;;;;;8.75;3.55;;;19.20;50.90;;;;;;5087791;28;19943;-65
2022/05/23 03:12:59;;;;;;;10.75;3.70;;;19.20;51.40;;;;;;5060044;28;20067;-66
2022/05/23 03:15:24;;;;;;;8.20;3.10;;;19.20;50.80;;;;;;5075183;28;20032;-66
2022/05/23 03:18:08;;;;;;;8.77;3.80;;;19.20;50.90;;;;;;5086185;28;20470;-65
2022/05/23 03:20:34;;;;;;;9.98;3.75;;;19.30;51.00;;;;;;5088208;28;20028;-66
2022/05/23 03:28:35;;;;;;;9.07;3.67;;;19.30;51.10;;;;;;5083967;28;20480;-64
2022/05/23 03:31:01;;;;;;;5.32;3.22;;;19.30;50.70;;;;;;5084119;28;20016;-67
2022/05/23 03:33:27;;;;;;;6.97;2.97;;;19.30;50.50;;;;;;5064631;28;20028;-66
2022/05/23 03:35:52;;;;;;;10.95;3.38;;;19.30;50.30;;;;;;5084075;28;20759;-67
2022/05/23 03:38:18;;;;;;;11.50;3.30;;;19.30;50.10;;;;;;5087845;28;20039;-65
2022/05/23 03:40:45;;;;;;;7.57;2.85;;;19.30;50.00;;;;;;5081394;28;20051;-65
2022/05/23 03:43:11;;;;;;;7.65;3.15;;;19.30;49.70;;;;;;5088076;28;20052;-66
2022/05/23 03:45:37;;;;;;;5.95;2.80;;;19.30;49.60;;;;;;5086425;28;20488;-65
2022/05/23 03:48:04;;;;;;;6.30;2.90;;;19.30;49.50;;;;;;5073327;28;20085;-67
2022/05/23 03:50:31;;;;;;;11.20;5.03;;;19.30;49.50;;;;;;5085752;28;20035;-66
2022/05/23 03:52:57;;;;;;;5.90;3.08;;;19.40;49.40;;;;;;5087111;28;20102;-65
2022/05/23 03:55:24;;;;;;;7.68;2.80;;;19.40;48.60;;;;;;5061067;28;20470;-65
2022/05/23 03:57:49;;;;;;;12.15;3.65;;;19.40;49.00;;;;;;5085081;28;20049;-67
2022/05/23 04:00:16;;;;;;;7.53;3.25;;;19.50;48.60;;;;;;5056948;28;20075;-63
2022/05/23 04:02:42;;;;;;;11.20;3.72;;;19.60;49.20;;;;;;5093195;28;20020;-67
2022/05/23 04:05:10;;;;;;;10.93;3.95;;;19.60;49.20;;;;;;5090682;28;20043;-67
2022/05/23 04:07:38;;;;;;;8.57;3.95;;;19.60;49.40;;;;;;5072536;28;20021;-66
2022/05/23 04:10:10;;;;;;;8.60;3.70;;;19.50;49.40;;;;;;5090618;28;20032;-65
2022/05/23 04:12:36;;;;;;;7.88;3.80;;;19.60;49.50;;;;;;5080964;28;20031;-67
2022/05/23 04:15:03;;;;;;;7.97;4.05;;;19.60;49.60;;;;;;5086468;28;20031;-66
2022/05/23 04:17:29;;;;;;;8.25;3.53;;;19.50;49.40;;;;;;5084782;28;20047;-66
2022/05/23 04:19:54;;;;;;;8.45;3.30;;;19.50;49.00;;;;;;5079202;28;20016;-67
2022/05/23 04:22:20;;;;;;;10.15;3.45;;;19.50;48.60;;;;;;5092733;28;20419;-65
2022/05/23 04:24:46;;;;;;;6.90;3.25;;;19.50;48.40;;;;;;5061684;28;20017;-67
2022/05/23 04:27:11;;;;;;;8.52;3.30;;;19.60;48.50;;;;;;5092769;28;20104;-66
2022/05/23 04:29:37;;;;;;;6.63;3.40;;;19.60;48.40;;;;;;5078286;28;20069;-66
2022/05/23 04:35:12;;;;;;;7.93;3.58;;;19.70;48.30;;;;;;5081898;28;20032;-65
2022/05/23 04:37:32;;;;;;;;;;;19.60;47.90;;;;;;5085770;28;20035;-65
2022/05/23 04:39:58;;;;;;;5.30;3.08;;;19.50;47.40;;;;;;5085892;28;19905;-66
2022/05/23 04:42:24;;;;;;;6.93;2.97;;;19.60;47.50;;;;;;5085257;28;20078;-64
2022/05/23 04:44:51;;;;;;;7.03;3.25;;;19.60;47.50;;;;;;5072684;28;20523;-67
2022/05/23 04:50:03;;;;;;;7.97;3.25;;;19.60;47.60;;;;;;5091815;28;20142;-64
2022/05/23 04:52:29;;;;;;;7.47;3.38;;;19.70;47.60;;;;;;5091369;28;20469;-67
2022/05/23 04:54:55;;;;;;;10.52;3.63;;;19.70;47.60;;;;;;5088120;28;20029;-66
2022/05/23 04:57:21;;;;;;;7.82;3.33;;;19.80;47.50;;;;;;5082505;28;20078;-65
2022/05/23 04:59:47;;;;;;;9.45;3.63;;;19.90;47.40;;;;;;5072177;28;20547;-66
2022/05/23 05:02:31;;;;;;;8.55;3.38;;;20.00;47.20;;;;;;5074224;28;20032;-68
2022/05/23 05:04:57;;;;;;;12.95;3.85;;;20.10;46.80;;;;;;5061933;28;20409;-66
2022/05/23 05:07:22;;;;;;;8.50;3.33;;;20.10;46.70;;;;;;5077945;28;20112;-65
2022/05/23 05:09:48;;;;;;;9.35;3.45;;;20.10;46.50;;;;;;5083826;28;20531;-68
2022/05/23 05:12:14;;;;;;;8.77;3.35;;;20.10;46.40;;;;;;5067211;28;20028;-67
2022/05/23 05:14:40;;;;;;;6.65;3.30;;;20.10;46.40;;;;;;5061964;28;20020;-66
2022/05/23 05:17:06;;;;;;;7.47;3.30;;;20.10;46.20;;;;;;5062134;28;20074;-67
2022/05/23 05:19:32;;;;;;;7.03;2.88;;;20.10;45.80;;;;;;5090413;28;20028;-67
2022/05/23 05:21:57;;;;;;;9.68;3.50;;;20.10;45.50;;;;;;5088846;28;20031;-65
2022/05/23 05:24:23;;;;;;;6.68;2.58;;;20.20;45.10;;;;;;5081097;28;20020;-64
2022/05/23 05:26:50;;;;;;;10.32;2.30;;;20.30;44.30;;;;;;5075052;28;20039;-66
2022/05/23 05:29:16;;;;;;;18.45;3.22;;;20.20;43.90;;;;;;5088290;28;20039;-66
2022/05/23 05:32:03;;;;;;;11.90;2.58;;;20.30;43.70;;;;;;5089017;28;20023;-65
2022/05/23 05:34:32;;;;;;;27.98;3.45;;;20.30;43.20;;;;;;5073669;28;20036;-65
2022/05/23 05:37:05;;;;;;;38.63;4.57;;;20.40;42.90;;;;;;5081075;28;20024;-66
2022/05/23 05:39:33;;;;;;;19.47;2.77;;;20.50;42.80;;;;;;5088263;28;20028;-65
2022/05/23 05:42:05;;;;;;;12.02;2.67;;;20.60;42.30;;;;;;5087337;28;20048;-67
2022/05/23 05:44:35;;;;;;;19.88;4.13;;;20.70;42.00;;;;;;5077283;28;20067;-67
2022/05/23 05:47:07;;;;;;;16.75;3.08;;;20.80;42.10;;;;;;5079547;28;20115;-67
2022/05/23 05:49:36;;;;;;;12.80;2.63;;;20.90;41.80;;;;;;5081602;28;20032;-66
2022/05/23 05:52:05;;;;;;;26.45;3.78;;;20.90;41.60;;;;;;5057645;28;20024;-66
2022/05/23 05:54:32;;;;;;;10.35;3.20;;;20.90;41.60;;;;;;5077390;28;20028;-65
2022/05/23 05:57:00;;;;;;;7.13;2.33;;;20.90;41.20;;;;;;5089268;28;20012;-67
2022/05/23 05:59:26;;;;;;;7.97;2.63;;;20.90;41.50;;;;;;5081569;28;20020;-65
2022/05/23 06:01:52;;;;;;;19.83;3.25;;;21.00;41.60;;;;;;5084479;28;20358;-66
2022/05/23 06:04:18;;;;;;;10.70;2.88;;;21.00;41.40;;;;;;5081135;28;20029;-67
2022/05/23 06:12:12;;;;;;;20.13;2.60;;;21.50;39.80;;;;;;5079850;28;20076;-65
2022/05/23 06:14:38;;;;;;;11.68;2.50;;;21.60;39.00;;;;;;5089121;28;20032;-67
2022/05/23 06:17:08;;;;;;;6.43;2.13;;;21.70;39.10;;;;;;5080939;28;20032;-65
2022/05/23 06:19:39;;;;;;;7.38;2.15;;;21.90;39.00;;;;;;5086223;28;20035;-64
2022/05/23 06:22:06;;;;;;;13.00;2.53;;;22.10;38.60;;;;;;5059219;28;20047;-66
2022/05/23 06:24:32;;;;;;;5.78;2.30;;;22.30;38.60;;;;;;5082039;28;20361;-65
2022/05/23 06:26:57;;;;;;;14.20;2.78;;;22.60;38.20;;;;;;5069124;28;20449;-65
2022/05/23 06:29:23;;;;;;;10.68;2.83;;;22.70;38.00;;;;;;5072664;28;20020;-62
2022/05/23 06:32:08;;;;;;;19.75;3.25;;;22.80;37.70;;;;;;5085347;28;20024;-65
2022/05/23 06:34:33;;;;;;;43.03;6.63;;;23.00;37.20;;;;;;5082301;28;20032;-64
2022/05/23 06:36:59;;;;;;;9.68;2.45;;;23.20;37.20;;;;;;5079009;28;20028;-64
2022/05/23 06:39:25;;;;;;;10.38;2.10;;;23.60;36.60;;;;;;5089641;28;20028;-62
2022/05/23 06:41:51;;;;;;;5.43;2.10;;;23.70;36.20;;;;;;5056394;28;20024;-65
2022/05/23 06:44:17;;;;;;;5.88;2.25;;;23.80;35.60;;;;;;5078322;28;20410;-64
2022/05/23 06:46:43;;;;;;;15.27;2.33;;;23.80;35.60;;;;;;5088376;28;20063;-64
2022/05/23 06:49:10;;;;;;;19.98;2.35;;;23.90;35.70;;;;;;5090625;28;20032;-65
2022/05/23 06:51:36;;;;;;;16.35;2.22;;;24.20;35.00;;;;;;5084649;28;20029;-66
2022/05/23 06:54:02;;;;;;;5.45;1.92;;;25.10;33.40;;;;;;5094346;28;20115;-65
2022/05/23 06:56:30;;;;;;;6.30;2.10;;;26.30;31.50;;;;;;5083999;28;20318;-63
2022/05/23 06:58:56;;;;;;;5.32;2.30;;;27.10;30.20;;;;;;5071793;28;20101;-67
2022/05/23 07:01:22;;;;;;;8.40;2.30;;;27.80;29.80;;;;;;5067301;28;20032;-66
2022/05/23 07:03:48;;;;;;;5.93;1.90;;;28.50;29.20;;;;;;5055139;28;20111;-66
2022/05/23 07:14:45;;;;;;;10.88;1.90;;;29.40;27.50;;;;;;5075730;28;20545;-65
2022/05/23 07:17:11;;;;;;;7.43;2.33;;;29.10;28.00;;;;;;5070237;28;20028;-64
2022/05/23 07:19:39;;;;;;;10.40;2.20;;;28.90;28.40;;;;;;5077775;28;20157;-66
2022/05/23 07:22:05;;;;;;;17.90;2.58;;;29.00;28.70;;;;;;5078454;28;20013;-64
2022/05/23 07:24:31;;;;;;;15.82;2.70;;;29.70;28.00;;;;;;5086135;28;20027;-63
2022/05/23 07:27:02;;;;;;;18.02;2.35;;;30.20;27.80;;;;;;5072287;28;20481;-64
2022/05/23 07:29:28;;;;;;;6.50;1.73;;;31.10;26.80;;;;;;5091773;28;20036;-65
2022/05/23 07:31:56;;;;;;;7.30;2.10;;;31.70;26.20;;;;;;5091023;28;20028;-67
2022/05/23 07:34:22;;;;;;;12.25;2.20;;;31.50;25.90;;;;;;5074366;28;20028;-66
2022/05/23 07:36:49;;;;;;;5.00;1.83;;;31.30;25.90;;;;;;5079232;28;20024;-67
2022/05/23 07:39:15;;;;;;;12.13;2.25;;;31.20;26.00;;;;;;5080112;28;20032;-66
2022/05/23 07:41:42;;;;;;;14.60;1.98;;;31.10;26.20;;;;;;5071329;28;20465;-65
2022/05/23 07:44:10;;;;;;;8.05;1.90;;;31.40;26.20;;;;;;5062946;28;20504;-64
2022/05/23 07:46:37;;;;;;;11.38;2.03;;;31.80;25.90;;;;;;5091034;28;20035;-64
2022/05/23 07:49:04;;;;;;;8.52;2.03;;;31.80;25.80;;;;;;5089057;28;20016;-67
2022/05/23 07:51:32;;;;;;;12.48;2.20;;;31.40;25.90;;;;;;5074490;28;20028;-62
2022/05/23 08:02:15;;;;;;;6.70;1.70;;;31.10;26.30;;;;;;5088896;28;20030;-66
2022/05/23 08:04:42;;;;;;;5.90;1.88;;;30.80;26.20;;;;;;5064509;28;20090;-68
2022/05/23 08:07:09;;;;;;;6.28;1.60;;;30.60;26.30;;;;;;5090355;28;20028;-67
2022/05/23 08:09:36;;;;;;;5.18;2.00;;;30.90;26.60;;;;;;5079211;28;20354;-64
2022/05/23 08:12:04;;;;;;;6.93;2.25;;;31.50;26.10;;;;;;5077997;28;20473;-66
2022/05/23 08:14:30;;;;;;;6.70;1.98;;;31.80;25.90;;;;;;5091497;28;20043;-66
2022/05/23 08:16:57;;;;;;;10.10;2.60;;;32.20;26.00;;;;;;5065909;28;20473;-66
2022/05/23 08:19:22;;;;;;;8.30;2.60;;;33.00;25.50;;;;;;5068119;28;20032;-66
2022/05/23 08:21:52;;;;;;;9.68;1.80;;;33.10;25.20;;;;;;5090910;28;20087;-67
2022/05/23 08:24:18;;;;;;;7.70;2.03;;;32.50;25.40;;;;;;5091200;28;20480;-65
2022/05/23 08:26:44;;;;;;;7.82;2.50;;;32.40;25.90;;;;;;5089069;28;20071;-66
2022/05/23 08:29:10;;;;;;;5.85;1.92;;;33.60;25.50;;;;;;5091434;28;20107;-66
2022/05/23 08:31:37;;;;;;;9.15;2.50;;;35.00;24.60;;;;;;5085763;28;20443;-64
2022/05/23 08:34:03;;;;;;;7.50;2.00;;;36.40;24.10;;;;;;5090368;28;20020;-68
2022/05/23 08:36:29;;;;;;;12.38;2.25;;;36.90;23.60;;;;;;5077748;28;20107;-66
2022/05/23 08:38:55;;;;;;;51.53;3.80;;;38.10;23.20;;;;;;5085312;28;20430;-65
2022/05/23 08:41:32;;;;;;;38.80;3.85;;;39.10;22.40;;;;;;5084473;28;20077;-65
2022/05/23 08:44:25;;;;;;;13.35;2.45;;;39.40;22.10;;;;;;5082531;28;20041;-65
2022/05/23 08:47:06;;;;;;;17.30;2.37;;;39.80;22.00;;;;;;5088138;28;20026;-66
2022/05/23 08:49:37;;;;;;;21.35;2.55;;;40.60;21.90;;;;;;5090937;28;20262;-66
2022/05/23 08:52:20;;;;;;;19.27;3.47;;;40.10;21.70;;;;;;5082991;28;20044;-66
2022/05/23 08:55:01;;;;;;;38.03;3.08;;;39.50;22.20;;;;;;5087632;28;20027;-69
2022/05/23 08:57:50;;;;;;;56.78;4.35;;;39.50;22.20;;;;;;5082184;28;20020;-65
2022/05/23 09:00:19;;;;;;;19.90;3.55;;;39.60;22.20;;;;;;5078842;28;20024;-67
2022/05/23 09:02:52;;;;;;;22.50;2.67;;;39.70;22.20;;;;;;5085276;28;20040;-64
2022/05/23 09:05:23;;;;;;;31.17;3.58;;;39.60;22.10;;;;;;5080601;28;20028;-66
2022/05/23 09:07:54;;;;;;;11.80;2.78;;;39.00;22.30;;;;;;5061050;28;20382;-65
2022/05/23 09:10:43;;;;;;;33.00;3.45;;;38.50;22.90;;;;;;5086217;28;20036;-65
2022/05/23 09:13:12;;;;;;;6.70;1.85;;;37.80;22.60;;;;;;5083907;28;20036;-65
2022/05/23 09:15:38;;;;;;;26.83;2.58;;;36.40;23.20;;;;;;5085794;28;20032;-66
2022/05/23 09:18:10;;;;;;;13.48;2.13;;;33.90;24.70;;;;;;5088349;28;20043;-66
2022/05/23 09:20:57;;;;;;;14.05;2.20;;;32.20;25.90;;;;;;5086292;28;20024;-66
2022/05/23 09:23:50;;;;;;;32.13;2.88;;;30.60;27.10;;;;;;5069406;28;20525;-65
2022/05/23 09:26:28;;;;;;;16.50;2.30;;;29.80;27.80;;;;;;5064865;28;20504;-65
2022/05/23 09:28:54;;;;;;;24.23;2.50;;;29.40;28.20;;;;;;5059067;28;20358;-66
2022/05/23 09:31:54;;;;;;;21.08;2.67;;;29.10;28.90;;;;;;5088485;28;20028;-67
2022/05/23 09:34:44;;;;;;;13.73;2.35;;;28.60;29.10;;;;;;5046056;28;20040;-67
2022/05/23 09:37:38;;;;;;;9.27;1.80;;;28.00;29.20;;;;;;5060437;28;20146;-65
2022/05/23 09:40:05;;;;;;;7.47;1.67;;;27.40;29.60;;;;;;5079858;28;20130;-65
2022/05/23 09:48:17;;;;;;;5.78;1.75;;;26.60;30.90;;;;;;5080820;28;20531;-65
2022/05/23 09:50:59;;;;;;;8.00;1.77;;;26.40;31.30;;;;;;5051932;28;20115;-64
2022/05/23 09:53:29;;;;;;;6.45;1.90;;;26.30;31.60;;;;;;5068876;28;20130;-66
2022/05/23 09:56:27;;;;;;;10.02;2.00;;;26.40;31.50;;;;;;5062907;28;20028;-64
2022/05/23 09:58:53;;;;;;;7.00;1.95;;;26.60;31.30;;;;;;5062947;28;20353;-66
2022/05/23 10:01:29;;;;;;;7.80;2.20;;;26.60;31.10;;;;;;5085978;28;20032;-64
2022/05/23 10:03:56;;;;;;;9.13;2.30;;;26.50;31.60;;;;;;5055536;28;20437;-65
2022/05/23 10:06:34;;;;;;;9.85;2.30;;;26.70;31.70;;;;;;5068952;28;20024;-66
2022/05/23 10:09:00;;;;;;;19.95;3.03;;;27.00;31.50;;;;;;5081204;28;20186;-66
2022/05/23 10:11:31;;;;;;;15.60;2.45;;;27.20;31.10;;;;;;5065995;28;20115;-66
2022/05/23 10:13:59;;;;;;;25.13;2.40;;;27.10;31.40;;;;;;5089682;28;20086;-67
2022/05/23 10:16:31;;;;;;;9.10;2.05;;;26.90;31.40;;;;;;5056479;28;20039;-65
2022/05/23 10:19:03;;;;;;;15.07;2.40;;;27.00;31.40;;;;;;5072843;28;20078;-66
2022/05/23 10:21:38;;;;;;;11.52;2.40;;;26.90;31.70;;;;;;5090470;28;20461;-67
2022/05/23 10:24:09;;;;;;;34.40;3.28;;;26.80;32.00;;;;;;5089076;28;20088;-66
2022/05/23 10:27:00;;;;;;;9.38;1.73;;;26.60;32.40;;;;;;5060201;28;20110;-64
2022/05/23 10:29:52;;;;;;;7.45;2.10;;;26.60;32.50;;;;;;5068663;28;20496;-66
2022/05/23 10:32:41;;;;;;;18.35;2.63;;;26.60;32.60;;;;;;5068203;28;20050;-65
2022/05/23 10:35:27;;;;;;;8.40;2.13;;;26.50;32.50;;;;;;5091121;28;20534;-66
2022/05/23 10:42:07;;;;;;;8.75;2.00;;;26.40;32.80;;;;;;5073875;28;20045;-65
2022/05/23 10:43:27;;;;;;;9.25;2.40;;;26.00;32.80;;;;;;5073992;28;20028;-65
2022/05/23 10:45:56;;;;;;;15.02;1.90;;;26.00;33.10;;;;;;5090194;28;20414;-66
2022/05/23 10:48:44;;;;;;;18.17;2.25;;;25.90;33.20;;;;;;5091584;28;20103;-68
2022/05/23 10:51:40;;;;;;;11.07;2.15;;;26.10;33.20;;;;;;5067726;28;20034;-66
2022/05/23 10:54:35;;;;;;;10.43;2.15;;;26.60;32.70;;;;;;5082801;28;20030;-66
2022/05/23 10:57:29;;;;;;;5.43;1.85;;;26.50;32.60;;;;;;5076293;28;20070;-65
2022/05/23 11:00:06;;;;;;;5.60;1.98;;;26.50;32.70;;;;;;5088176;28;20061;-67
2022/05/23 11:02:45;;;;;;;10.68;2.17;;;26.50;32.80;;;;;;5074275;28;20021;-65
2022/05/23 11:05:38;;;;;;;6.55;1.80;;;26.60;32.70;;;;;;5084464;28;20025;-67
2022/05/23 11:08:09;;;;;;;8.23;2.07;;;26.40;32.80;;;;;;5086311;28;20104;-67
2022/05/23 11:10:44;;;;;;;6.57;2.17;;;26.30;32.80;;;;;;5087064;28;20035;-66
2022/05/23 11:13:23;;;;;;;7.30;2.00;;;26.20;33.30;;;;;;5093229;28;20028;-67
2022/05/23 11:16:09;;;;;;;8.23;1.80;;;26.20;33.10;;;;;;5086795;28;20040;-63
2022/05/23 11:18:41;;;;;;;6.05;1.90;;;26.30;33.20;;;;;;5068154;28;20028;-65
2022/05/23 11:21:21;;;;;;;4.30;1.70;;;26.20;33.20;;;;;;5062684;28;20112;-65
2022/05/23 11:24:04;;;;;;;7.93;1.98;;;26.30;33.20;;;;;;5067919;28;20028;-65
2022/05/23 11:26:37;;;;;;;5.88;1.83;;;26.30;33.40;;;;;;5072878;28;20111;-66
2022/05/23 11:35:10;;;;;;;9.95;2.40;;;25.90;34.10;;;;;;5079717;28;20569;-66
2022/05/23 11:37:48;;;;;;;27.73;3.08;;;26.10;34.10;;;;;;5058781;28;20029;-67
2022/05/23 11:40:26;;;;;;;14.07;2.55;;;26.10;34.00;;;;;;5080607;28;20044;-65
2022/05/23 11:42:58;;;;;;;8.57;2.55;;;26.40;33.80;;;;;;5089537;28;20016;-66
2022/05/23 11:48:53;;;;;;;8.37;2.23;;;26.50;33.50;;;;;;5082566;28;20092;-68
2022/05/23 11:51:36;;;;;;;14.93;2.70;;;26.70;33.30;;;;;;5072856;28;20052;-66
2022/05/23 11:54:29;;;;;;;13.30;2.85;;;27.00;33.00;;;;;;5071944;28;21153;-66
2022/05/23 11:57:01;;;;;;;12.80;2.30;;;27.30;32.80;;;;;;5071954;28;20062;-66
2022/05/23 11:59:27;;;;;;;8.15;2.53;;;27.50;32.30;;;;;;5062537;28;20410;-67
2022/05/23 12:02:11;;;;;;;7.13;2.50;;;27.30;32.20;;;;;;5090564;28;20020;-64
2022/05/23 12:04:49;;;;;;;;;;;27.20;32.70;;;;;;5083862;28;20020;-65
2022/05/23 12:07:37;;;;;;;16.08;2.80;;;27.40;32.70;;;;;;5060774;28;19908;-64
2022/05/23 12:10:21;;;;;;;9.88;2.78;;;27.50;32.50;;;;;;5059868;28;20461;-65
2022/05/23 12:12:49;;;;;;;;;;;27.50;32.40;;;;;;5062370;28;20101;-66
2022/05/23 12:15:43;;;;;;;14.98;2.35;;;27.50;32.50;;;;;;5078305;28;19912;-66
2022/05/23 12:18:24;;;;;;;9.00;2.38;;;27.50;32.60;;;;;;5077974;28;20255;-66
2022/05/23 12:20:55;;;;;;;8.55;2.75;;;27.50;32.40;;;;;;5079076;28;20028;-65
2022/05/23 12:23:33;;;;;;;9.23;2.45;;;27.20;32.80;;;;;;5062107;28;20111;-65
2022/05/23 12:26:10;;;;;;;8.07;2.50;;;27.10;33.00;;;;;;5073162;28;20530;-66
2022/05/23 12:28:59;;;;;;;8.82;2.00;;;27.00;33.00;;;;;;5083138;28;20035;-67
2022/05/23 12:31:37;;;;;;;12.45;3.03;;;27.00;33.20;;;;;;5092285;28;20125;-66
2022/05/23 12:34:02;;;;;;;7.60;2.05;;;27.00;33.30;;;;;;5053971;28;20032;-68
2022/05/23 12:36:34;;;;;;;9.38;2.50;;;27.10;33.10;;;;;;5081352;28;20032;-67
2022/05/23 12:39:36;;;;;;;9.32;2.30;;;27.10;33.10;;;;;;5087206;28;20465;-66
2022/05/23 12:42:06;;;;;;;9.02;2.13;;;27.20;33.10;;;;;;5050847;28;20228;-66
2022/05/23 12:44:48;;;;;;;17.27;2.65;;;27.20;32.90;;;;;;5063375;28;20071;-67
2022/05/23 12:47:51;;;;;;;6.82;2.13;;;27.20;32.80;;;;;;5056149;28;20604;-68
2022/05/23 12:50:41;;;;;;;8.55;2.70;;;27.10;33.00;;;;;;5057127;28;20043;-67
2022/05/23 12:53:16;;;;;;;5.50;2.58;;;26.90;33.50;;;;;;5059350;28;20059;-68
2022/05/23 12:56:06;;;;;;;9.25;2.80;;;27.00;33.50;;;;;;5081647;28;20035;-66
2022/05/23 12:58:50;;;;;;;9.68;2.67;;;27.10;33.80;;;;;;5056892;28;20016;-66
2022/05/23 13:01:25;;;;;;;6.00;2.30;;;27.10;33.60;;;;;;5084196;28;20028;-67
2022/05/23 13:04:15;;;;;;;9.50;2.50;;;27.10;33.80;;;;;;5082744;28;20016;-67
2022/05/23 13:06:50;;;;;;;12.63;2.83;;;27.00;33.60;;;;;;5079874;28;20056;-66
2022/05/23 13:09:31;;;;;;;5.47;2.50;;;26.80;33.90;;;;;;5074576;28;20071;-68
2022/05/23 13:12:02;;;;;;;7.82;2.58;;;26.60;34.10;;;;;;5082416;28;20027;-65
2022/05/23 13:14:47;;;;;;;9.13;2.63;;;26.60;34.20;;;;;;5084831;28;20017;-66
2022/05/23 13:17:27;;;;;;;4.57;2.10;;;26.50;34.50;;;;;;5068338;28;20259;-67
2022/05/23 13:22:43;;;;;;;12.05;2.22;;;26.60;34.80;;;;;;5055837;28;20039;-68
2022/05/23 13:25:10;;;;;;;5.20;2.13;;;26.50;34.80;;;;;;5065732;28;20028;-67
2022/05/23 13:27:48;;;;;;;11.10;2.10;;;26.60;35.10;;;;;;5061921;28;20028;-67
2022/05/23 13:30:17;;;;;;;6.35;2.35;;;26.60;35.00;;;;;;5058768;28;20032;-67
2022/05/23 13:33:14;;;;;;;7.63;2.00;;;26.70;35.10;;;;;;5060889;28;20035;-68
2022/05/23 13:35:41;;;;;;;9.07;2.60;;;26.70;35.10;;;;;;5080357;28;20055;-67
2022/05/23 13:38:23;;;;;;;11.88;2.83;;;26.80;35.20;;;;;;5068744;28;20016;-67
2022/05/23 13:40:53;;;;;;;11.90;2.42;;;26.80;35.20;;;;;;5083274;28;20096;-66
2022/05/23 13:43:24;;;;;;;6.20;2.47;;;26.70;35.20;;;;;;5077160;28;20020;-65
2022/05/23 13:46:17;;;;;;;7.55;2.22;;;26.40;35.40;;;;;;5071470;28;20111;-67
2022/05/23 13:48:55;;;;;;;7.00;2.33;;;26.30;36.00;;;;;;5082083;28;20478;-66
2022/05/23 13:51:24;;;;;;;12.68;2.63;;;26.30;36.10;;;;;;5070113;28;20108;-65
2022/05/23 13:54:16;;;;;;;15.85;2.60;;;26.20;36.30;;;;;;5052343;28;20481;-66
2022/05/23 13:56:46;;;;;;;9.20;2.30;;;26.20;36.20;;;;;;5042298;28;20041;-67
2022/05/23 13:59:25;;;;;;;9.05;2.80;;;26.30;36.10;;;;;;5064307;28;20021;-67
2022/05/23 14:01:57;;;;;;;13.38;3.33;;;26.20;36.30;;;;;;5069056;28;20024;-67
2022/05/23 14:04:27;;;;;;;10.05;2.70;;;26.30;36.30;;;;;;5051957;28;20021;-66
2022/05/23 14:07:04;;;;;;;18.67;3.25;;;26.10;36.40;;;;;;5065347;28;20032;-65
2022/05/23 14:09:31;;;;;;;15.40;2.65;;;26.20;36.50;;;;;;5081978;28;20026;-66
2022/05/23 14:12:05;;;;;;;8.85;3.17;;;26.00;36.40;;;;;;5076599;28;20020;-63
2022/05/23 14:14:50;;;;;;;9.07;3.38;;;26.10;36.70;;;;;;5058742;28;20024;-65
2022/05/23 14:17:29;;;;;;;12.25;2.70;;;26.20;36.80;;;;;;5079746;28;20066;-65